createdAt,value
2022-09-10T00:01:36.482Z,100601.50
2022-09-10T00:04:10.987Z,100592.92
2022-09-10T00:06:39.911Z,100597.30
2022-09-10T00:09:08.931Z,100591.20
2022-09-10T00:11:40.849Z,100590.86
2022-09-10T00:14:17.340Z,100582.27
2022-09-10T00:16:45.735Z,100581.84
2022-09-10T00:19:15.105Z,100578.98
2022-09-10T00:21:46.760Z,100577.79
2022-09-10T00:24:14.799Z,100579.18
2022-09-10T00:26:42.870Z,100569.10
2022-09-10T00:29:12.787Z,100554.60
2022-09-10T00:31:40.861Z,100565.79
2022-09-10T00:34:11.498Z,100569.98
2022-09-10T00:36:41.891Z,100543.31
2022-09-10T00:39:13.848Z,100550.48
2022-09-10T00:41:44.487Z,100566.95
2022-09-10T00:44:39.664Z,100573.55
2022-09-10T00:47:21.836Z,100579.35
2022-09-10T00:49:56.818Z,100575.05
2022-09-10T00:52:25.440Z,100574.40
2022-09-10T00:54:54.643Z,100573.46
2022-09-10T00:57:24.302Z,100547.54
2022-09-10T00:59:56.320Z,100567.90
2022-09-10T01:02:25.440Z,100569.57
2022-09-10T01:04:55.546Z,100564.35
2022-09-10T01:07:29.287Z,100559.13
2022-09-10T01:10:08.529Z,100556.94
2022-09-10T01:13:01.561Z,100550.46
2022-09-10T01:15:46.607Z,100548.56
2022-09-10T01:19:09.927Z,100546.21
2022-09-10T01:22:14.052Z,100554.88
2022-09-10T01:25:06.982Z,100552.39
2022-09-10T01:27:37.657Z,100553.00
2022-09-10T01:30:18.094Z,100550.10
2022-09-10T01:32:57.025Z,100545.46
2022-09-10T01:35:44.992Z,100539.63
2022-09-10T01:38:23.014Z,100535.59
2022-09-10T01:40:54.850Z,100532.89
2022-09-10T01:43:24.646Z,100533.93
2022-09-10T01:46:33.672Z,100529.09
2022-09-10T01:49:36.895Z,100521.74
2022-09-10T01:52:26.561Z,100523.02
2022-09-10T01:55:34.404Z,100511.58
2022-09-10T01:58:21.516Z,100523.95
2022-09-10T02:01:11.111Z,100519.65
2022-09-10T02:03:42.216Z,100520.96
2022-09-10T02:06:14.870Z,100521.75
2022-09-10T02:08:46.924Z,100526.40
2022-09-10T02:11:16.016Z,100525.31
2022-09-10T02:13:52.619Z,100523.98
2022-09-10T02:16:47.300Z,100523.45
2022-09-10T02:19:17.275Z,100521.30
2022-09-10T02:21:54.231Z,100515.09
2022-09-10T02:24:22.892Z,100515.09
2022-09-10T02:26:51.219Z,100515.14
2022-09-10T02:29:19.503Z,100512.46
2022-09-10T02:31:47.615Z,100512.23
2022-09-10T02:34:18.433Z,100507.83
2022-09-10T02:36:48.151Z,100503.86
2022-09-10T02:39:16.506Z,100499.90
2022-09-10T02:41:48.183Z,100497.67
2022-09-10T02:44:16.569Z,100496.86
2022-09-10T02:46:45.362Z,100495.22
2022-09-10T02:49:15.149Z,100492.86
2022-09-10T02:51:44.809Z,100487.14
2022-09-10T02:54:13.070Z,100482.23
2022-09-10T02:56:40.961Z,100479.19
2022-09-10T02:59:10.324Z,100483.48
2022-09-10T03:01:39.009Z,100486.58
2022-09-10T03:04:08.346Z,100470.69
2022-09-10T03:06:36.908Z,100489.80
2022-09-10T03:09:05.615Z,100488.98
2022-09-10T03:11:34.897Z,100489.41
2022-09-10T03:14:03.108Z,100476.59
2022-09-10T03:16:31.119Z,100478.77
2022-09-10T03:18:59.465Z,100474.40
2022-09-10T03:21:27.573Z,100479.80
2022-09-10T03:23:58.336Z,100485.95
2022-09-10T03:26:30.635Z,100492.49
2022-09-10T03:28:59.236Z,100497.36
2022-09-10T03:31:27.432Z,100501.00
2022-09-10T03:33:57.918Z,100501.67
2022-09-10T03:36:31.367Z,100501.59
2022-09-10T03:39:01.188Z,100500.84
2022-09-10T03:41:37.312Z,100498.32
2022-09-10T03:44:06.528Z,100493.47
2022-09-10T03:46:34.528Z,100497.48
2022-09-10T03:49:03.520Z,100496.84
2022-09-10T03:51:32.030Z,100492.80
2022-09-10T03:54:00.682Z,100495.81
2022-09-10T03:56:28.693Z,100499.05
2022-09-10T03:58:57.519Z,100501.66
2022-09-10T04:01:27.538Z,100501.64
2022-09-10T04:03:57.099Z,100497.02
2022-09-10T04:06:27.111Z,100491.83
2022-09-10T04:08:56.392Z,100496.05
2022-09-10T04:11:27.827Z,100496.35
2022-09-10T04:13:57.454Z,100496.80
2022-09-10T04:16:27.552Z,100490.45
2022-09-10T04:18:55.778Z,100481.21
2022-09-10T04:21:24.645Z,100474.01
2022-09-10T04:23:56.443Z,100451.87
2022-09-10T04:26:26.406Z,100472.48
2022-09-10T04:28:54.569Z,100468.64
2022-09-10T04:31:22.952Z,100461.52
2022-09-10T04:33:53.786Z,100459.71
2022-09-10T04:36:26.089Z,100453.77
2022-09-10T04:38:54.409Z,100446.61
2022-09-10T04:41:22.308Z,100443.83
2022-09-10T04:43:50.883Z,100439.64
2022-09-10T04:46:18.934Z,100445.33
2022-09-10T04:48:49.476Z,100446.59
2022-09-10T04:51:21.486Z,100439.92
2022-09-10T04:53:53.146Z,100441.08
2022-09-10T04:56:23.968Z,100451.60
2022-09-10T04:58:51.961Z,100451.73
2022-09-10T05:01:20.552Z,100444.80
2022-09-10T05:03:52.621Z,100435.98
2022-09-10T05:06:20.797Z,100433.53
2022-09-10T05:08:49.612Z,100436.01
2022-09-10T05:11:19.935Z,100407.95
2022-09-10T05:13:48.174Z,100436.09
2022-09-10T05:16:19.420Z,100442.76
2022-09-10T05:18:48.896Z,100450.95
2022-09-10T05:21:18.488Z,100457.16
2022-09-10T05:23:46.617Z,100456.95
2022-09-10T05:26:15.016Z,100457.27
2022-09-10T05:28:43.472Z,100459.76
2022-09-10T05:31:16.806Z,100454.73
2022-09-10T05:33:46.471Z,100430.15
2022-09-10T05:36:14.877Z,100423.39
2022-09-10T05:38:46.011Z,100443.20
2022-09-10T05:41:14.744Z,100438.90
2022-09-10T05:43:52.058Z,100440.84
2022-09-10T05:46:20.349Z,100432.94
2022-09-10T05:48:54.433Z,100436.54
2022-09-10T05:51:27.817Z,100439.04
2022-09-10T05:53:58.195Z,100434.75
2022-09-10T05:56:27.285Z,100435.77
2022-09-10T05:58:55.118Z,100430.44
2022-09-10T06:01:23.409Z,100427.60
2022-09-10T06:03:51.690Z,100432.63
2022-09-10T06:06:19.712Z,100428.48
2022-09-10T06:08:58.163Z,100429.80
2022-09-10T06:11:40.528Z,100429.89
2022-09-10T06:14:09.526Z,100426.66
2022-09-10T06:16:37.952Z,100426.14
2022-09-10T06:19:08.462Z,100421.52
2022-09-10T06:21:37.875Z,100420.39
2022-09-10T06:24:07.386Z,100410.59
2022-09-10T06:26:38.501Z,100415.31
2022-09-10T06:29:11.784Z,100407.98
2022-09-10T06:31:42.978Z,100406.15
2022-09-10T06:34:13.527Z,100402.83
2022-09-10T06:36:42.179Z,100403.83
2022-09-10T06:39:10.965Z,100403.13
2022-09-10T06:41:49.836Z,100407.09
2022-09-10T06:44:36.763Z,100409.11
2022-09-10T06:50:03.828Z,100408.06
2022-09-10T06:52:35.652Z,100405.30
2022-09-10T06:55:06.613Z,100402.97
2022-09-10T06:57:40.477Z,100377.41
2022-09-10T07:00:09.758Z,100398.13
2022-09-10T07:02:38.293Z,100383.65
2022-09-10T07:05:08.257Z,100399.38
2022-09-10T07:07:38.042Z,100403.39
2022-09-10T07:10:08.233Z,100408.00
2022-09-10T07:12:36.461Z,100411.59
2022-09-10T07:15:06.770Z,100404.20
2022-09-10T07:17:36.225Z,100428.48
2022-09-10T07:20:04.986Z,100436.77
2022-09-10T07:22:44.130Z,100439.93
2022-09-10T07:25:14.173Z,100437.23
2022-09-10T07:27:54.483Z,100437.25
2022-09-10T07:30:22.718Z,100431.55
2022-09-10T07:32:52.273Z,100431.87
2022-09-10T07:35:25.354Z,100430.10
2022-09-10T07:37:54.488Z,100429.63
2022-09-10T07:40:23.563Z,100424.08
2022-09-10T07:42:52.753Z,100428.92
2022-09-10T07:45:21.511Z,100430.66
2022-09-10T07:47:50.019Z,100440.00
2022-09-10T07:50:19.516Z,100442.04
2022-09-10T07:52:52.812Z,100437.45
2022-09-10T07:55:23.570Z,100433.89
2022-09-10T07:57:52.283Z,100437.13
2022-09-10T08:00:20.479Z,100448.52
2022-09-10T08:02:50.725Z,100442.89
2022-09-10T08:05:20.469Z,100444.23
2022-09-10T08:07:54.410Z,100439.70
2022-09-10T08:10:22.924Z,100440.25
2022-09-10T08:12:51.209Z,100442.59
2022-09-10T08:15:19.548Z,100441.23
2022-09-10T08:17:48.038Z,100439.79
2022-09-10T08:20:16.204Z,100438.34
2022-09-10T08:22:45.223Z,100443.15
2022-09-10T08:25:14.879Z,100444.29
2022-09-10T08:27:42.962Z,100443.01
2022-09-10T08:30:12.738Z,100446.15
2022-09-10T08:32:42.160Z,100443.44
2022-09-10T08:35:10.428Z,100404.34
2022-09-10T08:37:38.280Z,100444.70
2022-09-10T08:40:12.034Z,100442.49
2022-09-10T08:42:47.137Z,100444.98
2022-09-10T08:45:31.218Z,100439.63
2022-09-10T08:48:22.128Z,100434.56
2022-09-10T08:50:58.139Z,100434.69
2022-09-10T08:53:32.767Z,100436.93
2022-09-10T08:56:10.401Z,100441.38
2022-09-10T08:58:47.417Z,100440.45
2022-09-10T09:01:30.909Z,100437.72
2022-09-10T09:29:34.875Z,100432.73
2022-09-10T09:32:16.112Z,100434.88
2022-09-10T09:34:50.617Z,100434.65
2022-09-10T09:37:30.257Z,100429.55
2022-09-10T09:40:21.341Z,100420.07
2022-09-10T09:42:58.689Z,100417.23
2022-09-10T09:45:37.760Z,100396.28
2022-09-10T09:48:07.664Z,100409.58
2022-09-10T09:50:55.077Z,100410.73
2022-09-10T09:53:29.206Z,100410.79
2022-09-10T09:56:01.053Z,100400.36
2022-09-10T09:58:34.835Z,100395.80
2022-09-10T10:01:14.691Z,100398.07
2022-09-10T10:03:48.727Z,100403.77
2022-09-10T10:06:17.522Z,100409.17
2022-09-10T10:09:04.807Z,100414.94
2022-09-10T10:11:51.505Z,100421.70
2022-09-10T10:14:20.598Z,100415.87
2022-09-10T10:16:52.186Z,100406.12
2022-09-10T10:19:29.424Z,100403.80
2022-09-10T10:21:59.873Z,100401.38
2022-09-10T10:24:34.158Z,100386.43
2022-09-10T10:27:02.419Z,100394.70
2022-09-10T10:29:31.013Z,100392.49
2022-09-10T10:32:05.454Z,100386.38
2022-09-10T10:34:54.184Z,100383.31
2022-09-10T10:37:43.940Z,100378.98
2022-09-10T10:40:23.783Z,100376.01
2022-09-10T10:43:21.323Z,100379.48
2022-09-10T10:46:08.815Z,100376.87
2022-09-10T10:48:57.760Z,100362.84
2022-09-10T10:51:50.832Z,100378.57
2022-09-10T10:54:37.603Z,100372.48
2022-09-10T10:57:20.302Z,100373.27
2022-09-10T11:00:12.483Z,100374.58
2022-09-10T11:03:02.513Z,100369.61
2022-09-10T11:05:37.707Z,100361.47
2022-09-10T11:08:15.293Z,100356.95
2022-09-10T11:10:50.655Z,100353.69
2022-09-10T11:13:27.354Z,100347.41
2022-09-10T11:16:04.416Z,100348.63
2022-09-10T11:18:43.798Z,100354.66
2022-09-10T11:21:34.876Z,100353.39
2022-09-10T11:24:47.592Z,100357.20
2022-09-10T11:27:33.369Z,100349.23
2022-09-10T11:30:04.735Z,100323.20
2022-09-10T11:32:40.214Z,100345.73
2022-09-10T11:35:29.543Z,100345.96
2022-09-10T11:38:12.858Z,100324.62
2022-09-10T11:40:56.346Z,100332.27
2022-09-10T11:43:30.709Z,100330.20
2022-09-10T11:46:04.777Z,100335.12
2022-09-10T11:48:48.473Z,100323.66
2022-09-10T11:51:24.535Z,100334.70
2022-09-10T11:53:55.054Z,100333.92
2022-09-10T11:56:38.336Z,100333.10
2022-09-10T11:59:44.094Z,100330.77
2022-09-10T12:02:24.511Z,100331.10
2022-09-10T12:05:07.158Z,100330.45
2022-09-10T12:07:53.953Z,100329.40
2022-09-10T12:11:01.184Z,100317.75
2022-09-10T12:13:29.970Z,100314.14
2022-09-10T12:16:16.034Z,100317.94
2022-09-10T12:18:49.139Z,100316.96
2022-09-10T12:21:38.168Z,100315.27
2022-09-10T12:24:31.634Z,100312.36
2022-09-10T12:27:05.437Z,100307.23
2022-09-10T12:29:37.903Z,100304.89
2022-09-10T12:32:09.003Z,100303.62
2022-09-10T12:34:38.220Z,100302.80
2022-09-10T12:37:07.939Z,100302.11
2022-09-10T12:39:36.053Z,100300.23
2022-09-10T12:42:34.418Z,100271.80
2022-09-10T12:45:02.485Z,100294.83
2022-09-10T12:47:40.162Z,100295.77
2022-09-10T12:50:27.167Z,100292.23
2022-09-10T12:53:13.789Z,100288.83
2022-09-10T12:56:02.255Z,100285.21
2022-09-10T12:59:04.063Z,100284.40
2022-09-10T13:02:02.435Z,100281.50
2022-09-10T13:04:37.377Z,100283.40
2022-09-10T13:07:21.263Z,100281.90
2022-09-10T13:10:23.676Z,100276.32
2022-09-10T13:12:55.933Z,100278.67
2022-09-10T13:15:30.157Z,100277.58
2022-09-10T13:22:32.098Z,100276.37
2022-09-10T13:25:43.252Z,100275.29
2022-09-10T13:28:30.500Z,100267.75
2022-09-10T13:31:25.366Z,100271.86
2022-09-10T13:33:57.020Z,100272.23
2022-09-10T13:36:30.385Z,100267.77
2022-09-10T13:39:28.792Z,100262.48
2022-09-10T13:42:18.474Z,100263.37
2022-09-10T13:45:31.449Z,100258.73
2022-09-10T13:48:02.093Z,100256.87
2022-09-10T13:50:39.260Z,100258.83
2022-09-10T13:53:27.927Z,100260.04
2022-09-10T13:56:14.448Z,100259.75
2022-09-10T13:58:49.681Z,100257.02
2022-09-10T14:01:18.126Z,100253.67
2022-09-10T14:03:46.192Z,100257.63
2022-09-10T14:06:22.471Z,100254.52
2022-09-10T14:08:53.387Z,100255.17
2022-09-10T14:11:37.640Z,100256.65
2022-09-10T14:14:11.664Z,100253.49
2022-09-10T14:16:49.983Z,100255.38
2022-09-10T14:19:30.018Z,100241.04
2022-09-10T14:21:58.520Z,100254.38
2022-09-10T14:24:35.732Z,100251.60
2022-09-10T14:27:19.688Z,100248.26
2022-09-10T14:29:47.857Z,100247.04
2022-09-10T14:32:34.480Z,100248.35
2022-09-10T14:35:37.626Z,100246.77
2022-09-10T14:38:48.035Z,100246.38
2022-09-10T14:41:24.814Z,100244.71
2022-09-10T14:44:22.271Z,100243.63
2022-09-10T14:46:58.971Z,100246.54
2022-09-10T14:49:40.425Z,100249.55
2022-09-10T14:52:12.031Z,100249.70
2022-09-10T14:54:40.466Z,100251.10
2022-09-10T14:57:17.199Z,100251.64
2022-09-10T14:59:50.270Z,100248.31
2022-09-10T15:02:27.235Z,100252.31
2022-09-10T15:04:55.937Z,100253.75
2022-09-10T15:07:27.600Z,100241.19
2022-09-10T15:10:14.421Z,100253.63
2022-09-10T15:12:47.466Z,100256.08
2022-09-10T15:15:17.865Z,100256.37
2022-09-10T15:17:45.855Z,100256.05
2022-09-10T15:20:17.181Z,100251.09
2022-09-10T15:22:45.471Z,100248.59
2022-09-10T15:25:33.910Z,100249.40
2022-09-10T15:28:06.207Z,100248.09
2022-09-10T15:30:36.062Z,100247.02
2022-09-10T15:33:06.111Z,100248.67
2022-09-10T15:35:34.120Z,100242.03
2022-09-10T15:38:04.183Z,100246.13
2022-09-10T15:40:32.091Z,100241.14
2022-09-10T15:43:00.064Z,100240.55
2022-09-10T15:45:28.415Z,100239.51
2022-09-10T15:47:56.521Z,100238.52
2022-09-10T15:50:24.630Z,100239.27
2022-09-10T15:52:52.492Z,100236.50
2022-09-10T15:55:21.610Z,100235.52
2022-09-10T15:57:51.476Z,100233.47
2022-09-10T16:00:20.361Z,100238.54
2022-09-10T16:02:53.272Z,100203.56
2022-09-10T16:05:21.660Z,100238.14
2022-09-10T16:07:49.696Z,100236.38
2022-09-10T16:10:18.039Z,100235.40
2022-09-10T16:12:45.990Z,100233.45
2022-09-10T16:15:14.197Z,100233.90
2022-09-10T16:17:42.476Z,100232.92
2022-09-10T16:20:10.509Z,100231.54
2022-09-10T16:22:38.821Z,100224.02
2022-09-10T16:25:08.865Z,100222.59
2022-09-10T16:27:40.429Z,100218.80
2022-09-10T16:30:12.489Z,100217.55
2022-09-10T16:32:40.902Z,100215.05
2022-09-10T16:35:09.662Z,100214.83
2022-09-10T16:37:37.674Z,100215.02
2022-09-10T16:40:07.291Z,100213.25
2022-09-10T16:42:35.195Z,100213.05
2022-09-10T16:45:03.224Z,100215.25
2022-09-10T16:47:31.209Z,100213.20
2022-09-10T16:49:59.155Z,100212.80
2022-09-10T16:52:27.083Z,100212.88
2022-09-10T16:54:55.802Z,100212.38
2022-09-10T16:57:23.940Z,100210.37
2022-09-10T16:59:52.733Z,100211.20
2022-09-10T17:02:20.667Z,100206.61
2022-09-10T17:04:48.668Z,100208.59
2022-09-10T17:07:16.464Z,100207.20
2022-09-10T17:09:44.500Z,100203.86
2022-09-10T17:12:12.612Z,100207.19
2022-09-10T17:14:40.960Z,100205.66
2022-09-10T17:17:10.028Z,100208.02
2022-09-10T17:19:38.003Z,100207.35
2022-09-10T17:22:06.642Z,100205.86
2022-09-10T17:24:34.614Z,100204.46
2022-09-10T17:27:02.721Z,100205.17
2022-09-10T17:29:33.096Z,100205.21
2022-09-10T17:32:01.257Z,100202.21
2022-09-10T17:34:29.373Z,100200.79
2022-09-10T17:36:57.541Z,100203.42
2022-09-10T17:39:28.584Z,100200.26
2022-09-10T17:41:57.484Z,100200.70
2022-09-10T17:44:25.951Z,100199.21
2022-09-10T17:46:55.277Z,100199.06
2022-09-10T17:49:24.095Z,100199.84
2022-09-10T17:51:58.625Z,100195.04
2022-09-10T17:54:26.732Z,100194.06
2022-09-10T17:56:54.781Z,100194.48
2022-09-10T17:59:24.701Z,100191.36
2022-09-10T18:01:54.061Z,100194.34
2022-09-10T18:04:22.167Z,100196.87
2022-09-10T18:06:52.512Z,100190.56
2022-09-10T18:09:21.869Z,100192.11
2022-09-10T18:11:50.477Z,100190.80
2022-09-10T18:14:19.910Z,100188.21
2022-09-10T18:16:48.001Z,100189.88
2022-09-10T18:19:18.020Z,100188.66
2022-09-10T18:21:47.406Z,100193.60
2022-09-10T18:24:22.659Z,100191.08
2022-09-10T18:26:54.021Z,100185.16
2022-09-10T18:29:30.252Z,100196.28
2022-09-10T18:32:02.102Z,100199.05
2022-09-10T18:34:31.137Z,100200.91
2022-09-10T18:37:01.171Z,100201.39
2022-09-10T18:39:31.312Z,100201.68
2022-09-10T18:42:01.222Z,100206.96
2022-09-10T18:44:35.435Z,100205.75
2022-09-10T18:47:14.239Z,100205.52
2022-09-10T18:49:50.717Z,100204.84
2022-09-10T18:52:18.832Z,100202.95
2022-09-10T18:54:46.859Z,100199.64
2022-09-10T18:57:14.861Z,100197.89
2022-09-10T18:59:42.988Z,100200.29
2022-09-10T19:02:13.107Z,100195.38
2022-09-10T19:04:54.652Z,100197.06
2022-09-10T19:07:29.665Z,100196.34
2022-09-10T19:09:57.875Z,100190.09
2022-09-10T19:12:26.492Z,100195.02
2022-09-10T19:14:54.766Z,100195.41
2022-09-10T19:17:22.993Z,100194.97
2022-09-10T19:19:51.023Z,100192.91
2022-09-10T19:22:19.619Z,100193.52
2022-09-10T19:24:55.768Z,100191.36
2022-09-10T19:27:24.891Z,100195.59
2022-09-10T19:29:53.988Z,100193.40
2022-09-10T19:32:22.085Z,100191.02
2022-09-10T19:34:51.426Z,100183.04
2022-09-10T19:37:19.984Z,100183.04
2022-09-10T19:39:48.355Z,100175.58
2022-09-10T19:42:17.350Z,100174.30
2022-09-10T19:44:45.244Z,100178.03
2022-09-10T19:47:13.123Z,100176.31
2022-09-10T19:49:43.531Z,100176.84
2022-09-10T19:52:11.473Z,100174.59
2022-09-10T19:54:39.970Z,100175.94
2022-09-10T19:57:08.291Z,100158.99
2022-09-10T19:59:36.225Z,100172.75
2022-09-10T20:02:04.405Z,100151.23
2022-09-10T20:04:33.252Z,100167.37
2022-09-10T20:07:01.456Z,100166.29
2022-09-10T20:09:29.642Z,100166.39
2022-09-10T20:11:57.865Z,100159.47
2022-09-10T20:14:26.097Z,100162.47
2022-09-10T20:17:04.612Z,100142.29
2022-09-10T20:19:32.790Z,100162.09
2022-09-10T20:22:00.702Z,100157.38
2022-09-10T20:24:28.769Z,100160.13
2022-09-10T20:26:57.202Z,100158.65
2022-09-10T20:29:25.568Z,100159.59
2022-09-10T20:31:53.531Z,100158.68
2022-09-10T20:34:22.645Z,100158.54
2022-09-10T20:36:51.659Z,100155.36
2022-09-10T20:39:22.375Z,100156.43
2022-09-10T20:41:50.846Z,100156.59
2022-09-10T20:44:20.930Z,100156.12
2022-09-10T20:46:49.460Z,100149.67
2022-09-10T20:49:21.915Z,100148.98
2022-09-10T20:52:04.740Z,100146.05
2022-09-10T20:54:33.097Z,100149.77
2022-09-10T20:57:02.336Z,100148.73
2022-09-10T20:59:30.704Z,100148.55
2022-09-10T21:01:59.180Z,100126.67
2022-09-10T21:04:27.227Z,100144.34
2022-09-10T21:06:56.418Z,100142.84
2022-09-10T21:09:24.785Z,100136.36
2022-09-10T21:11:52.568Z,100133.52
2022-09-10T21:14:20.394Z,100135.40
2022-09-10T21:16:48.712Z,100129.07
2022-09-10T21:19:18.021Z,100126.69
2022-09-10T21:21:51.803Z,100123.36
2022-09-10T21:24:25.051Z,100130.09
2022-09-10T21:26:53.787Z,100124.23
2022-09-10T21:29:22.639Z,100122.89
2022-09-10T21:31:50.901Z,100124.66
2022-09-10T21:34:19.416Z,100126.31
2022-09-10T21:36:47.981Z,100118.65
2022-09-10T21:39:18.503Z,100125.05
2022-09-10T21:41:50.236Z,100128.46
2022-09-10T21:44:22.270Z,100127.77
2022-09-10T21:46:50.832Z,100127.98
2022-09-10T21:49:20.453Z,100128.35
2022-09-10T21:51:49.029Z,100129.11
2022-09-10T21:54:21.149Z,100128.23
2022-09-10T21:56:50.694Z,100124.52
2022-09-10T21:59:20.507Z,100107.19
2022-09-10T22:01:49.145Z,100122.23
2022-09-10T22:04:22.588Z,100120.04
2022-09-10T22:06:52.014Z,100114.92
2022-09-10T22:09:21.559Z,100116.52
2022-09-10T22:11:53.255Z,100116.41
2022-09-10T22:14:23.645Z,100097.25
2022-09-10T22:16:52.450Z,100111.29
2022-09-10T22:19:23.916Z,100112.13
2022-09-10T22:21:54.333Z,100111.10
2022-09-10T22:24:23.061Z,100106.67
2022-09-10T22:26:50.913Z,100111.88
2022-09-10T22:29:20.581Z,100088.44
2022-09-10T22:31:49.685Z,100112.70
2022-09-10T22:34:18.350Z,100108.92
2022-09-10T22:36:48.766Z,100112.83
2022-09-10T22:39:21.722Z,100108.42
2022-09-10T22:41:50.882Z,100105.98
2022-09-10T22:44:20.375Z,100103.13
2022-09-10T22:46:48.556Z,100101.28
2022-09-10T22:49:18.188Z,100099.23
2022-09-10T22:51:46.281Z,100098.71
2022-09-10T22:54:14.770Z,100095.63
2022-09-10T22:56:44.717Z,100093.08
2022-09-10T22:59:14.140Z,100091.60
2022-09-10T23:01:43.514Z,100050.90
2022-09-10T23:04:11.753Z,100090.00
2022-09-10T23:06:40.029Z,100091.27
2022-09-10T23:09:11.449Z,100092.73
2022-09-10T23:11:41.218Z,100089.89
2022-09-10T23:14:13.137Z,100088.98
2022-09-10T23:16:44.243Z,100083.73
2022-09-10T23:19:15.712Z,100085.40
2022-09-10T23:21:46.767Z,100082.40
2022-09-10T23:24:17.302Z,100082.45
2022-09-10T23:26:45.844Z,100078.33
2022-09-10T23:29:18.620Z,100075.97
2022-09-10T23:31:48.021Z,100076.20
2022-09-10T23:34:18.957Z,100075.08
2022-09-10T23:36:48.939Z,100072.70
2022-09-10T23:39:20.165Z,100070.95
2022-09-10T23:41:50.116Z,100069.34
2022-09-10T23:44:18.115Z,100070.98
2022-09-10T23:46:46.237Z,100066.76
2022-09-10T23:49:14.790Z,100066.06
2022-09-10T23:51:42.745Z,100071.98
2022-09-10T23:54:13.088Z,100064.41
2022-09-10T23:56:41.629Z,100060.24
2022-09-10T23:59:20.174Z,100061.87
